createdAt,value
2019-04-06T00:00:34.512Z,998.61
2019-04-06T00:01:34.376Z,998.61
2019-04-06T00:02:34.420Z,998.63
2019-04-06T00:03:34.378Z,998.62
2019-04-06T00:04:34.443Z,998.60
2019-04-06T00:05:34.338Z,998.62
2019-04-06T00:06:34.345Z,998.57
2019-04-06T00:07:34.339Z,998.55
2019-04-06T00:08:34.393Z,998.59
2019-04-06T00:09:34.291Z,998.52
2019-04-06T00:10:34.376Z,998.56
2019-04-06T00:11:34.272Z,998.50
2019-04-06T00:12:34.287Z,998.53
2019-04-06T00:13:34.302Z,998.59
2019-04-06T00:14:34.308Z,998.57
2019-04-06T00:15:34.223Z,998.58
2019-04-06T00:16:34.362Z,998.51
2019-04-06T00:17:34.233Z,998.47
2019-04-06T00:18:34.232Z,998.51
2019-04-06T00:19:34.229Z,998.54
2019-04-06T00:20:34.265Z,998.50
2019-04-06T00:21:34.159Z,998.52
2019-04-06T00:22:34.259Z,998.49
2019-04-06T00:23:34.168Z,998.53
2019-04-06T00:24:34.204Z,998.53
2019-04-06T00:25:43.799Z,998.46
2019-04-06T00:26:35.106Z,998.48
2019-04-06T00:27:34.191Z,998.47
2019-04-06T00:28:34.090Z,998.46
2019-04-06T00:29:34.134Z,998.41
2019-04-06T00:30:34.066Z,998.50
2019-04-06T00:31:34.111Z,998.38
2019-04-06T00:32:34.046Z,998.46
2019-04-06T00:33:34.124Z,998.42
2019-04-06T00:34:34.038Z,998.44
2019-04-06T00:35:34.069Z,998.34
2019-04-06T00:36:33.997Z,998.30
2019-04-06T00:37:34.050Z,998.31
2019-04-06T00:38:34.080Z,998.32
2019-04-06T00:39:34.090Z,998.35
2019-04-06T00:40:33.954Z,998.30
2019-04-06T00:41:33.972Z,998.25
2019-04-06T00:42:33.926Z,998.34
2019-04-06T00:43:33.992Z,998.31
2019-04-06T00:44:33.933Z,998.32
2019-04-06T00:45:34.050Z,998.31
2019-04-06T00:46:33.882Z,998.32
2019-04-06T00:47:33.912Z,998.29
2019-04-06T00:48:33.857Z,998.33
2019-04-06T00:49:33.933Z,998.35
2019-04-06T00:50:33.863Z,998.26
2019-04-06T00:51:33.945Z,998.31
2019-04-06T00:52:33.825Z,998.27
2019-04-06T00:53:33.861Z,998.29
2019-04-06T00:54:33.789Z,998.30
2019-04-06T00:55:33.904Z,998.30
2019-04-06T00:56:33.766Z,998.25
2019-04-06T00:57:33.886Z,998.20
2019-04-06T00:58:33.746Z,998.22
2019-04-06T01:00:34.825Z,998.20
2019-04-06T01:01:33.806Z,998.13
2019-04-06T01:02:33.721Z,998.11
2019-04-06T01:03:33.716Z,998.10
2019-04-06T01:04:33.677Z,998.15
2019-04-06T01:05:33.818Z,998.15
2019-04-06T01:06:33.677Z,998.20
2019-04-06T01:07:33.776Z,998.18
2019-04-06T01:08:33.641Z,998.15
2019-04-06T01:09:33.655Z,998.15
2019-04-06T01:10:33.618Z,998.15
2019-04-06T01:11:33.702Z,998.12
2019-04-06T01:12:33.595Z,998.12
2019-04-06T01:13:33.692Z,998.14
2019-04-06T01:14:33.584Z,998.16
2019-04-06T01:15:33.636Z,998.15
2019-04-06T01:16:33.571Z,998.18
2019-04-06T01:17:33.626Z,998.17
2019-04-06T01:18:33.535Z,998.20
2019-04-06T01:19:33.628Z,998.21
2019-04-06T01:20:33.533Z,998.23
2019-04-06T01:21:33.569Z,998.20
2019-04-06T01:22:33.482Z,998.19
2019-04-06T01:23:33.552Z,998.26
2019-04-06T01:24:33.460Z,998.22
2019-04-06T01:25:33.567Z,998.17
2019-04-06T01:26:33.469Z,998.21
2019-04-06T01:27:33.474Z,998.21
2019-04-06T01:28:33.417Z,998.16
2019-04-06T01:29:33.488Z,998.21
2019-04-06T01:30:33.393Z,998.21
2019-04-06T01:31:33.431Z,998.18
2019-04-06T01:32:33.380Z,998.18
2019-04-06T01:33:33.424Z,998.26
2019-04-06T01:34:33.351Z,998.23
2019-04-06T01:35:33.430Z,998.16
2019-04-06T01:36:33.373Z,998.16
2019-04-06T01:37:33.343Z,998.18
2019-04-06T01:38:33.303Z,998.24
2019-04-06T01:39:33.360Z,998.16
2019-04-06T01:40:33.277Z,998.20
2019-04-06T01:41:33.376Z,998.18
2019-04-06T01:42:33.306Z,998.26
2019-04-06T01:43:33.280Z,998.19
2019-04-06T01:44:33.236Z,998.18
2019-04-06T01:45:33.294Z,998.17
2019-04-06T01:46:33.220Z,998.22
2019-04-06T01:47:33.338Z,998.14
2019-04-06T01:48:33.196Z,998.12
2019-04-06T01:49:33.226Z,998.09
2019-04-06T01:50:33.170Z,998.14
2019-04-06T01:51:33.244Z,998.18
2019-04-06T01:52:33.289Z,998.15
2019-04-06T01:53:33.254Z,998.10
2019-04-06T01:54:33.139Z,998.22
2019-04-06T01:55:33.230Z,998.13
2019-04-06T01:56:33.109Z,998.21
2019-04-06T01:57:33.217Z,998.22
2019-04-06T01:58:33.091Z,998.13
2019-04-06T01:59:33.190Z,998.20
2019-04-06T02:00:33.078Z,998.21
2019-04-06T02:01:33.099Z,998.18
2019-04-06T02:02:33.080Z,998.20
2019-04-06T02:03:33.112Z,998.19
2019-04-06T02:04:33.009Z,998.23
2019-04-06T02:05:33.027Z,998.24
2019-04-06T02:06:33.071Z,998.19
2019-04-06T02:07:33.092Z,998.17
2019-04-06T02:08:32.966Z,998.13
2019-04-06T02:09:33.056Z,998.15
2019-04-06T02:10:32.944Z,998.17
2019-04-06T02:11:32.962Z,998.10
2019-04-06T02:12:32.926Z,998.12
2019-04-06T02:13:33.128Z,998.18
2019-04-06T02:14:32.917Z,998.13
2019-04-06T02:15:32.990Z,998.21
2019-04-06T02:16:32.884Z,998.15
2019-04-06T02:17:32.907Z,998.13
2019-04-06T02:18:32.891Z,998.17
2019-04-06T02:19:32.913Z,998.08
2019-04-06T02:20:32.834Z,998.08
2019-04-06T02:21:32.937Z,998.09
2019-04-06T02:22:32.831Z,998.11
2019-04-06T02:23:32.888Z,998.10
2019-04-06T02:24:32.788Z,998.06
2019-04-06T02:25:32.939Z,998.09
2019-04-06T02:26:32.778Z,998.05
2019-04-06T02:27:32.952Z,998.09
2019-04-06T02:28:32.794Z,998.10
2019-04-06T02:29:32.788Z,998.05
2019-04-06T02:30:32.740Z,998.13
2019-04-06T02:31:32.832Z,998.13
2019-04-06T02:32:32.720Z,998.09
2019-04-06T02:33:32.937Z,998.15
2019-04-06T02:34:32.682Z,998.14
2019-04-06T02:35:32.718Z,998.11
2019-04-06T02:36:32.663Z,998.11
2019-04-06T02:37:32.735Z,998.13
2019-04-06T02:38:32.661Z,998.09
2019-04-06T02:39:32.677Z,998.17
2019-04-06T02:40:32.610Z,998.17
2019-04-06T02:41:32.670Z,998.08
2019-04-06T02:42:32.594Z,998.16
2019-04-06T02:43:32.732Z,998.11
2019-04-06T02:44:32.633Z,998.10
2019-04-06T02:45:32.588Z,998.10
2019-04-06T02:46:32.568Z,998.12
2019-04-06T02:48:33.722Z,998.08
2019-04-06T02:49:32.863Z,998.08
2019-04-06T02:50:32.508Z,998.10
2019-04-06T02:51:32.578Z,998.12
2019-04-06T02:52:32.487Z,998.13
2019-04-06T02:53:32.544Z,998.10
2019-04-06T02:54:32.504Z,998.12
2019-04-06T02:55:32.584Z,998.12
2019-04-06T02:56:45.009Z,998.12
2019-04-06T02:57:33.427Z,998.10
2019-04-06T02:58:32.474Z,998.07
2019-04-06T02:59:32.451Z,998.10
2019-04-06T03:01:33.432Z,998.16
2019-04-06T03:02:32.406Z,998.09
2019-04-06T03:03:32.358Z,998.09
2019-04-06T03:04:32.459Z,998.16
2019-04-06T03:05:32.340Z,998.17
2019-04-06T03:06:32.497Z,998.14
2019-04-06T03:07:32.327Z,998.16
2019-04-06T03:08:32.347Z,998.12
2019-04-06T03:09:32.344Z,998.17
2019-04-06T03:10:32.377Z,998.10
2019-04-06T03:11:32.284Z,998.12
2019-04-06T03:12:32.376Z,998.12
2019-04-06T03:13:32.273Z,998.12
2019-04-06T03:14:32.282Z,998.11
2019-04-06T03:15:32.273Z,998.15
2019-04-06T03:16:32.293Z,998.15
2019-04-06T03:17:32.211Z,998.14
2019-04-06T03:18:32.352Z,998.16
2019-04-06T03:19:32.203Z,998.14
2019-04-06T03:20:32.249Z,998.10
2019-04-06T03:21:32.165Z,998.13
2019-04-06T03:22:32.339Z,998.12
2019-04-06T03:23:32.144Z,998.14
2019-04-06T03:24:32.450Z,998.16
2019-04-06T03:25:32.187Z,998.13
2019-04-06T03:26:32.572Z,998.13
2019-04-06T03:27:32.098Z,998.12
2019-04-06T03:28:32.903Z,998.13
2019-04-06T03:29:32.076Z,998.13
2019-04-06T03:30:32.894Z,998.12
2019-04-06T03:31:32.050Z,998.11
2019-04-06T03:33:33.334Z,998.10
2019-04-06T03:35:33.147Z,998.12
2019-04-06T03:37:33.055Z,998.11
2019-04-06T03:39:33.054Z,998.12
2019-04-06T03:40:33.418Z,998.12
2019-04-06T03:41:31.955Z,998.04
2019-04-06T03:44:32.972Z,998.09
2019-04-06T03:45:33.668Z,998.12
2019-04-06T03:47:32.925Z,998.06
2019-04-06T03:49:32.950Z,998.02
2019-04-06T03:50:34.019Z,998.02
2019-04-06T03:51:31.900Z,998.02
2019-04-06T03:52:38.507Z,997.99
2019-04-06T03:53:31.870Z,997.98
2019-04-06T03:54:34.196Z,997.98
2019-04-06T03:55:31.805Z,997.99
2019-04-06T03:56:34.354Z,997.97
2019-04-06T03:57:31.766Z,998.02
2019-04-06T03:59:32.833Z,998.04
2019-04-06T04:01:32.843Z,998.04
2019-04-06T04:03:32.758Z,998.11
2019-04-06T04:05:32.778Z,998.04
2019-04-06T04:06:34.933Z,998.10
2019-04-06T04:07:31.651Z,998.07
2019-04-06T04:09:32.688Z,998.06
2019-04-06T04:11:32.782Z,998.06
2019-04-06T04:13:32.641Z,998.06
2019-04-06T04:14:35.463Z,998.03
2019-04-06T04:15:31.578Z,997.95
2019-04-06T04:17:32.799Z,997.96
2019-04-06T04:18:35.610Z,997.97
2019-04-06T04:19:31.592Z,997.99
2019-04-06T04:22:34.481Z,997.93
2019-04-06T04:23:31.480Z,997.91
2019-04-06T04:24:33.587Z,997.87
2019-04-06T04:25:31.504Z,997.89
2019-04-06T04:26:33.723Z,997.88
2019-04-06T04:27:31.477Z,997.90
2019-04-06T04:28:31.464Z,997.85
2019-04-06T04:29:31.505Z,997.80
2019-04-06T04:30:34.059Z,997.88
2019-04-06T04:31:31.959Z,997.79
2019-04-06T04:32:31.520Z,997.87
2019-04-06T04:33:31.543Z,997.90
2019-04-06T04:34:31.404Z,998.02
2019-04-06T04:35:31.538Z,997.99
2019-04-06T04:36:31.421Z,997.99
2019-04-06T04:37:31.348Z,998.03
2019-04-06T04:38:31.740Z,998.07
2019-04-06T04:39:31.326Z,998.09
2019-04-06T04:40:31.344Z,998.14
2019-04-06T04:41:31.276Z,998.11
2019-04-06T04:42:31.351Z,998.05
2019-04-06T04:43:31.463Z,998.02
2019-04-06T04:44:31.268Z,997.97
2019-04-06T04:45:31.226Z,998.02
2019-04-06T04:46:31.278Z,997.99
2019-04-06T04:47:31.206Z,997.99
2019-04-06T04:48:31.325Z,998.01
2019-04-06T04:49:31.195Z,998.00
2019-04-06T04:50:31.318Z,998.01
2019-04-06T04:51:31.170Z,998.04
2019-04-06T04:52:31.213Z,998.09
2019-04-06T04:53:31.275Z,998.06
2019-04-06T04:54:31.229Z,998.04
2019-04-06T04:55:31.126Z,997.96
2019-04-06T04:56:31.150Z,998.04
2019-04-06T04:57:40.200Z,998.10
2019-04-06T04:58:32.267Z,998.14
2019-04-06T04:59:31.202Z,998.12
2019-04-06T05:00:31.156Z,998.20
2019-04-06T05:01:31.189Z,998.20
2019-04-06T05:02:31.041Z,998.17
2019-04-06T05:03:31.134Z,998.22
2019-04-06T05:04:31.049Z,998.19
2019-04-06T05:05:31.100Z,998.20
2019-04-06T05:06:31.110Z,998.18
2019-04-06T05:07:31.024Z,998.11
2019-04-06T05:08:30.996Z,998.05
2019-04-06T05:09:31.067Z,998.09
2019-04-06T05:10:31.003Z,998.12
2019-04-06T05:11:31.073Z,998.02
2019-04-06T05:12:30.958Z,998.09
2019-04-06T05:13:30.967Z,998.05
2019-04-06T05:14:30.953Z,998.08
2019-04-06T05:15:31.091Z,998.09
2019-04-06T05:16:30.921Z,998.05
2019-04-06T05:17:30.992Z,998.04
2019-04-06T05:18:30.871Z,998.10
2019-04-06T05:19:30.928Z,998.03
2019-04-06T05:20:30.911Z,997.99
2019-04-06T05:21:30.906Z,998.04
2019-04-06T05:22:30.826Z,998.05
2019-04-06T05:23:31.028Z,998.04
2019-04-06T05:24:30.837Z,998.01
2019-04-06T05:25:30.878Z,998.04
2019-04-06T05:26:37.496Z,998.04
2019-04-06T05:27:31.884Z,998.05
2019-04-06T05:28:30.781Z,998.13
2019-04-06T05:29:33.051Z,998.08
2019-04-06T05:30:30.874Z,998.06
2019-04-06T05:31:30.857Z,998.09
2019-04-06T05:32:30.713Z,998.06
2019-04-06T05:33:30.787Z,998.05
2019-04-06T05:34:30.697Z,998.04
2019-04-06T05:35:30.841Z,998.12
2019-04-06T05:36:30.677Z,998.12
2019-04-06T05:37:30.722Z,998.21
2019-04-06T05:38:30.656Z,998.22
2019-04-06T05:39:30.738Z,998.23
2019-04-06T05:40:30.674Z,998.22
2019-04-06T05:41:30.822Z,998.25
2019-04-06T05:42:30.612Z,998.33
2019-04-06T05:43:30.793Z,998.29
2019-04-06T05:44:30.807Z,998.31
2019-04-06T05:45:30.756Z,998.31
2019-04-06T05:46:30.573Z,998.28
2019-04-06T05:47:30.891Z,998.38
2019-04-06T05:48:30.557Z,998.28
2019-04-06T05:49:30.699Z,998.36
2019-04-06T05:50:30.663Z,998.37
2019-04-06T05:51:30.633Z,998.38
2019-04-06T05:52:30.504Z,998.33
2019-04-06T05:53:30.520Z,998.33
2019-04-06T05:54:30.485Z,998.43
2019-04-06T05:55:30.545Z,998.42
2019-04-06T05:56:30.482Z,998.41
2019-04-06T05:57:32.078Z,998.45
2019-04-06T05:58:30.466Z,998.45
2019-04-06T05:59:30.619Z,998.45
2019-04-06T06:00:30.409Z,998.47
2019-04-06T06:01:30.520Z,998.45
2019-04-06T06:02:30.392Z,998.43
2019-04-06T06:03:30.492Z,998.47
2019-04-06T06:04:30.377Z,998.45
2019-04-06T06:05:30.432Z,998.51
2019-04-06T06:06:30.383Z,998.47
2019-04-06T06:07:30.414Z,998.50
2019-04-06T06:08:30.576Z,998.47
2019-04-06T06:09:30.443Z,998.52
2019-04-06T06:10:30.316Z,998.51
2019-04-06T06:11:30.385Z,998.51
2019-04-06T06:12:30.278Z,998.51
2019-04-06T06:13:30.499Z,998.57
2019-04-06T06:14:30.262Z,998.50
2019-04-06T06:15:30.364Z,998.52
2019-04-06T06:16:30.412Z,998.56
2019-04-06T06:17:30.276Z,998.50
2019-04-06T06:18:30.220Z,998.50
2019-04-06T06:19:30.305Z,998.56
2019-04-06T06:20:30.221Z,998.53
2019-04-06T06:21:30.770Z,998.57
2019-04-06T06:22:30.316Z,998.56
2019-04-06T06:23:30.216Z,998.53
2019-04-06T06:24:30.153Z,998.57
2019-04-06T06:25:30.517Z,998.48
2019-04-06T06:26:30.213Z,998.52
2019-04-06T06:27:30.188Z,998.49
2019-04-06T06:28:30.113Z,998.50
2019-04-06T06:29:30.162Z,998.53
2019-04-06T06:30:30.086Z,998.48
2019-04-06T06:31:30.207Z,998.45
2019-04-06T06:32:31.381Z,998.53
2019-04-06T06:33:30.176Z,998.54
2019-04-06T06:34:30.057Z,998.53
2019-04-06T06:35:30.090Z,998.51
2019-04-06T06:36:30.062Z,998.52
2019-04-06T06:37:30.137Z,998.52
2019-04-06T06:38:30.003Z,998.54
2019-04-06T06:39:30.014Z,998.54
2019-04-06T06:40:29.976Z,998.51
2019-04-06T06:41:30.038Z,998.51
2019-04-06T06:42:29.994Z,998.56
2019-04-06T06:43:30.220Z,998.51
2019-04-06T06:44:30.225Z,998.53
2019-04-06T06:45:30.065Z,998.55
2019-04-06T06:46:30.091Z,998.54
2019-04-06T06:47:30.112Z,998.59
2019-04-06T06:48:29.892Z,998.55
2019-04-06T06:49:29.986Z,998.55
2019-04-06T06:50:30.062Z,998.57
2019-04-06T06:51:29.917Z,998.63
2019-04-06T06:52:30.060Z,998.56
2019-04-06T06:53:30.017Z,998.64
2019-04-06T06:54:29.845Z,998.57
2019-04-06T06:55:29.935Z,998.62
2019-04-06T06:56:29.815Z,998.61
2019-04-06T06:57:29.854Z,998.59
2019-04-06T06:58:29.805Z,998.59
2019-04-06T06:59:29.954Z,998.55
2019-04-06T07:00:29.759Z,998.62
2019-04-06T07:01:29.969Z,998.59
2019-04-06T07:02:29.834Z,998.60
2019-04-06T07:03:29.822Z,998.57
2019-04-06T07:04:29.718Z,998.57
2019-04-06T07:05:29.893Z,998.61
2019-04-06T07:06:29.695Z,998.60
2019-04-06T07:07:29.852Z,998.57
2019-04-06T07:08:29.714Z,998.56
2019-04-06T07:10:30.820Z,998.63
2019-04-06T07:11:29.730Z,998.55
2019-04-06T07:12:29.670Z,998.58
2019-04-06T07:13:29.746Z,998.58
2019-04-06T07:14:29.604Z,998.62
2019-04-06T07:15:29.651Z,998.61
2019-04-06T07:16:29.598Z,998.60
2019-04-06T07:17:29.807Z,998.60
2019-04-06T07:18:29.596Z,998.66
2019-04-06T07:19:29.579Z,998.61
2019-04-06T07:20:29.550Z,998.63
2019-04-06T07:21:29.596Z,998.62
2019-04-06T07:22:29.522Z,998.70
2019-04-06T07:23:29.648Z,998.63
2019-04-06T07:24:29.508Z,998.63
2019-04-06T07:25:29.528Z,998.67
2019-04-06T07:26:29.482Z,998.66
2019-04-06T07:27:29.538Z,998.69
2019-04-06T07:28:37.510Z,998.65
2019-04-06T07:29:30.482Z,998.67
2019-04-06T07:30:29.782Z,998.70
2019-04-06T07:31:29.800Z,998.63
2019-04-06T07:32:29.537Z,998.73
2019-04-06T07:33:29.434Z,998.67
2019-04-06T07:34:31.700Z,998.69
2019-04-06T07:35:29.600Z,998.71
2019-04-06T07:36:29.474Z,998.70
2019-04-06T07:37:29.398Z,998.74
2019-04-06T07:38:29.631Z,998.67
2019-04-06T07:39:29.372Z,998.69
2019-04-06T07:40:29.513Z,998.69
2019-04-06T07:41:29.314Z,998.72
2019-04-06T07:42:31.835Z,998.65
2019-04-06T07:43:29.642Z,998.71
2019-04-06T07:44:29.750Z,998.65
2019-04-06T07:45:29.828Z,998.69
2019-04-06T07:46:29.684Z,998.67
2019-04-06T07:47:29.265Z,998.65
2019-04-06T07:48:29.273Z,998.61
2019-04-06T07:49:29.281Z,998.73
2019-04-06T07:50:29.617Z,998.69
2019-04-06T07:51:29.240Z,998.70
2019-04-06T07:52:29.297Z,998.62
2019-04-06T07:53:29.444Z,998.68
2019-04-06T07:54:29.294Z,998.66
2019-04-06T07:55:29.165Z,998.71
2019-04-06T07:56:29.245Z,998.72
2019-04-06T07:57:29.141Z,998.72
2019-04-06T07:58:29.350Z,998.70
2019-04-06T07:59:29.176Z,998.67
2019-04-06T08:00:29.183Z,998.64
2019-04-06T08:01:29.134Z,998.72
2019-04-06T08:02:29.167Z,998.64
2019-04-06T08:03:29.230Z,998.66
2019-04-06T08:04:29.290Z,998.70
2019-04-06T08:05:29.112Z,998.71
2019-04-06T08:06:29.098Z,998.66
2019-04-06T08:07:29.040Z,998.64
2019-04-06T08:08:29.330Z,998.67
2019-04-06T08:09:29.016Z,998.65
2019-04-06T08:10:29.334Z,998.70
2019-04-06T08:11:29.121Z,998.66
2019-04-06T08:12:29.025Z,998.67
2019-04-06T08:13:29.001Z,998.65
2019-04-06T08:14:29.179Z,998.68
2019-04-06T08:15:28.980Z,998.66
2019-04-06T08:16:29.155Z,998.64
2019-04-06T08:17:28.974Z,998.56
2019-04-06T08:18:29.122Z,998.60
2019-04-06T08:19:28.931Z,998.61
2019-04-06T08:20:29.010Z,998.67
2019-04-06T08:21:29.028Z,998.63
2019-04-06T08:22:29.093Z,998.58
2019-04-06T08:23:28.894Z,998.62
2019-04-06T08:24:29.083Z,998.65
2019-04-06T08:25:28.871Z,998.58
2019-04-06T08:26:28.930Z,998.60
2019-04-06T08:27:29.037Z,998.57
2019-04-06T08:28:28.840Z,998.61
2019-04-06T08:29:29.185Z,998.58
2019-04-06T08:30:31.139Z,998.64
2019-04-06T08:31:28.854Z,998.57
2019-04-06T08:32:28.866Z,998.58
2019-04-06T08:33:28.746Z,998.62
2019-04-06T08:34:28.775Z,998.59
2019-04-06T08:35:28.733Z,998.57
2019-04-06T08:36:28.817Z,998.52
2019-04-06T08:37:28.888Z,998.50
2019-04-06T08:38:28.803Z,998.42
2019-04-06T08:39:28.704Z,998.52
2019-04-06T08:40:28.759Z,998.49
2019-04-06T08:41:28.703Z,998.52
2019-04-06T08:42:28.722Z,998.52
2019-04-06T08:43:28.736Z,998.57
2019-04-06T08:44:28.954Z,998.58
2019-04-06T08:45:28.634Z,998.56
2019-04-06T08:46:28.700Z,998.63
2019-04-06T08:47:28.595Z,998.57
2019-04-06T08:48:28.664Z,998.55
2019-04-06T08:49:28.582Z,998.50
2019-04-06T08:50:28.684Z,998.51
2019-04-06T08:51:28.634Z,998.54
2019-04-06T08:52:28.710Z,998.59
2019-04-06T08:53:28.730Z,998.58
2019-04-06T08:54:28.606Z,998.56
2019-04-06T08:55:28.503Z,998.58
2019-04-06T08:57:29.781Z,998.60
2019-04-06T08:58:28.529Z,998.64
2019-04-06T08:59:28.461Z,998.56
2019-04-06T09:00:28.541Z,998.52
2019-04-06T09:01:28.434Z,998.48
2019-04-06T09:02:28.700Z,998.56
2019-04-06T09:03:28.427Z,998.50
2019-04-06T09:04:28.473Z,998.47
2019-04-06T09:05:28.395Z,998.52
2019-04-06T09:06:28.484Z,998.51
2019-04-06T09:07:28.398Z,998.55
2019-04-06T09:08:28.394Z,998.50
2019-04-06T09:09:28.531Z,998.60
2019-04-06T09:10:28.415Z,998.53
2019-04-06T09:11:28.328Z,998.50
2019-04-06T09:12:28.488Z,998.48
2019-04-06T09:13:28.308Z,998.52
2019-04-06T09:14:28.338Z,998.49
2019-04-06T09:15:28.304Z,998.48
2019-04-06T09:16:28.362Z,998.49
2019-04-06T09:17:28.296Z,998.51
2019-04-06T09:18:28.910Z,998.51
2019-04-06T09:19:28.472Z,998.56
2019-04-06T09:20:28.270Z,998.59
2019-04-06T09:21:28.454Z,998.54
2019-04-06T09:22:28.447Z,998.57
2019-04-06T09:23:28.222Z,998.50
2019-04-06T09:24:28.327Z,998.45
2019-04-06T09:25:28.182Z,998.53
2019-04-06T09:26:28.241Z,998.48
2019-04-06T09:27:28.516Z,998.46
2019-04-06T09:28:28.563Z,998.51
2019-04-06T09:29:28.185Z,998.44
2019-04-06T09:30:28.242Z,998.49
2019-04-06T09:31:28.137Z,998.46
2019-04-06T09:32:28.151Z,998.45
2019-04-06T09:33:28.128Z,998.46
2019-04-06T09:34:30.694Z,998.44
2019-04-06T09:35:28.102Z,998.43
2019-04-06T09:36:28.187Z,998.44
2019-04-06T09:37:28.061Z,998.49
2019-04-06T09:38:28.120Z,998.45
2019-04-06T09:39:28.238Z,998.47
2019-04-06T09:40:28.410Z,998.42
2019-04-06T09:41:28.086Z,998.45
2019-04-06T09:42:28.123Z,998.47
2019-04-06T09:43:27.989Z,998.44
2019-04-06T09:44:28.060Z,998.45
2019-04-06T09:45:27.987Z,998.49
2019-04-06T09:46:28.196Z,998.46
2019-04-06T09:47:28.727Z,998.44
2019-04-06T09:48:27.971Z,998.44
2019-04-06T09:49:27.946Z,998.39
2019-04-06T09:50:27.971Z,998.44
2019-04-06T09:51:28.000Z,998.44
2019-04-06T09:52:27.985Z,998.50
2019-04-06T09:53:27.970Z,998.53
2019-04-06T09:54:27.931Z,998.42
2019-04-06T09:55:27.863Z,998.47
2019-04-06T09:56:27.915Z,998.48
2019-04-06T09:57:28.081Z,998.48
2019-04-06T09:58:27.928Z,998.50
2019-04-06T09:59:35.505Z,998.46
2019-04-06T10:00:28.880Z,998.44
2019-04-06T10:01:37.281Z,998.45
2019-04-06T10:02:29.152Z,998.47
2019-04-06T10:03:27.857Z,998.39
2019-04-06T10:04:27.847Z,998.43
2019-04-06T10:05:27.771Z,998.36
2019-04-06T10:06:27.955Z,998.41
2019-04-06T10:07:27.814Z,998.44
2019-04-06T10:08:27.800Z,998.42
2019-04-06T10:09:27.826Z,998.40
2019-04-06T10:10:27.693Z,998.46
2019-04-06T10:11:27.817Z,998.48
2019-04-06T10:12:27.674Z,998.51
2019-04-06T10:13:27.731Z,998.50
2019-04-06T10:14:27.795Z,998.47
2019-04-06T10:15:29.436Z,998.48
2019-04-06T10:16:27.633Z,998.48
2019-04-06T10:17:27.727Z,998.54
2019-04-06T10:18:27.734Z,998.45
2019-04-06T10:19:27.924Z,998.41
2019-04-06T10:20:27.677Z,998.45
2019-04-06T10:21:27.679Z,998.42
2019-04-06T10:22:27.658Z,998.41
2019-04-06T10:23:27.586Z,998.45
2019-04-06T10:24:27.543Z,998.38
2019-04-06T10:25:27.637Z,998.43
2019-04-06T10:26:27.720Z,998.43
2019-04-06T10:27:27.620Z,998.42
2019-04-06T10:28:27.504Z,998.39
2019-04-06T10:29:27.531Z,998.40
2019-04-06T10:30:27.492Z,998.40
2019-04-06T10:31:27.540Z,998.35
2019-04-06T10:32:27.447Z,998.38
2019-04-06T10:33:27.596Z,998.37
2019-04-06T10:34:27.431Z,998.38
2019-04-06T10:35:27.823Z,998.34
2019-04-06T10:36:27.416Z,998.28
2019-04-06T10:37:27.476Z,998.29
2019-04-06T10:38:27.385Z,998.29
2019-04-06T10:39:27.500Z,998.31
2019-04-06T10:40:27.543Z,998.35
2019-04-06T10:41:27.432Z,998.31
2019-04-06T10:42:29.060Z,998.29
2019-04-06T10:43:28.218Z,998.31
2019-04-06T10:44:27.324Z,998.36
2019-04-06T10:45:27.486Z,998.28
2019-04-06T10:46:27.598Z,998.37
2019-04-06T10:47:27.341Z,998.36
2019-04-06T10:48:27.277Z,998.38
2019-04-06T10:49:27.552Z,998.34
2019-04-06T10:50:27.277Z,998.36
2019-04-06T10:51:27.397Z,998.33
2019-04-06T10:52:27.242Z,998.28
2019-04-06T10:53:27.389Z,998.23
2019-04-06T10:54:27.210Z,998.23
2019-04-06T10:55:27.311Z,998.28
2019-04-06T10:56:27.554Z,998.30
2019-04-06T10:57:27.226Z,998.28
2019-04-06T10:58:27.175Z,998.28
2019-04-06T10:59:27.244Z,998.27
2019-04-06T11:00:27.140Z,998.27
2019-04-06T11:01:27.280Z,998.30
2019-04-06T11:02:27.138Z,998.29
2019-04-06T11:03:27.236Z,998.29
2019-04-06T11:04:27.388Z,998.28
2019-04-06T11:05:27.521Z,998.38
2019-04-06T11:06:27.111Z,998.24
2019-04-06T11:07:27.180Z,998.36
2019-04-06T11:08:27.058Z,998.27
2019-04-06T11:09:27.100Z,998.24
2019-04-06T11:10:27.041Z,998.23
2019-04-06T11:11:27.431Z,998.17
2019-04-06T11:12:27.259Z,998.23
2019-04-06T11:13:27.175Z,998.21
2019-04-06T11:14:27.012Z,998.26
2019-04-06T11:15:27.030Z,998.33
2019-04-06T11:16:27.001Z,998.34
2019-04-06T11:17:27.083Z,998.35
2019-04-06T11:18:27.201Z,998.29
2019-04-06T11:19:27.068Z,998.27
2019-04-06T11:20:26.926Z,998.20
2019-04-06T11:21:26.974Z,998.15
2019-04-06T11:22:26.938Z,998.26
2019-04-06T11:23:26.982Z,998.25
2019-04-06T11:24:27.139Z,998.31
2019-04-06T11:25:26.998Z,998.30
2019-04-06T11:26:26.897Z,998.30
2019-04-06T11:27:26.944Z,998.22
2019-04-06T11:28:26.836Z,998.17
2019-04-06T11:29:27.000Z,998.15
2019-04-06T11:30:26.818Z,998.17
2019-04-06T11:31:26.837Z,998.16
2019-04-06T11:32:26.877Z,998.16
2019-04-06T11:33:26.849Z,998.16
2019-04-06T11:34:26.866Z,998.17
2019-04-06T11:35:27.308Z,998.20
2019-04-06T11:36:26.772Z,998.16
2019-04-06T11:37:26.802Z,998.11
2019-04-06T11:38:26.743Z,998.18
2019-04-06T11:39:26.792Z,998.12
2019-04-06T11:40:26.732Z,998.14
2019-04-06T11:41:26.811Z,998.11
2019-04-06T11:42:26.710Z,998.16
2019-04-06T11:43:26.758Z,998.07
2019-04-06T11:44:26.695Z,998.07
2019-04-06T11:45:26.720Z,998.08
2019-04-06T11:46:26.660Z,998.04
2019-04-06T11:47:26.738Z,998.08
2019-04-06T11:48:26.648Z,998.10
2019-04-06T11:49:26.645Z,998.07
2019-04-06T11:50:26.629Z,998.05
2019-04-06T11:51:26.658Z,998.11
2019-04-06T11:52:26.818Z,998.02
2019-04-06T11:53:26.732Z,998.16
2019-04-06T11:54:26.571Z,998.04
2019-04-06T11:55:26.609Z,998.05
2019-04-06T11:56:26.571Z,998.10
2019-04-06T11:57:26.616Z,998.07
2019-04-06T11:58:26.744Z,998.11
2019-04-06T11:59:26.618Z,998.14
2019-04-06T12:00:27.716Z,998.13
2019-04-06T12:01:26.532Z,998.19
2019-04-06T12:02:26.484Z,998.13
2019-04-06T12:03:26.713Z,998.18
2019-04-06T12:04:26.461Z,998.10
2019-04-06T12:05:26.567Z,998.09
2019-04-06T12:06:26.453Z,998.16
2019-04-06T12:07:26.474Z,998.16
2019-04-06T12:08:26.716Z,998.06
2019-04-06T12:10:27.445Z,998.10
2019-04-06T12:11:26.494Z,998.14
2019-04-06T12:12:26.375Z,998.09
2019-04-06T12:13:26.675Z,998.10
2019-04-06T12:14:26.397Z,998.04
2019-04-06T12:15:26.431Z,998.06
2019-04-06T12:16:26.324Z,998.09
2019-04-06T12:17:26.490Z,998.16
2019-04-06T12:18:26.339Z,998.03
2019-04-06T12:19:26.395Z,998.12
2019-04-06T12:20:26.282Z,998.02
2019-04-06T12:21:26.365Z,998.13
2019-04-06T12:22:26.293Z,998.15
2019-04-06T12:23:26.385Z,998.13
2019-04-06T12:24:26.281Z,998.11
2019-04-06T12:26:27.273Z,998.14
2019-04-06T12:27:26.302Z,998.09
2019-04-06T12:28:26.218Z,998.09
2019-04-06T12:29:26.246Z,998.10
2019-04-06T12:30:36.986Z,998.03
2019-04-06T12:31:27.176Z,998.05
2019-04-06T12:32:26.240Z,998.05
2019-04-06T12:33:26.297Z,998.10
2019-04-06T12:34:26.273Z,998.06
2019-04-06T12:35:26.124Z,998.09
2019-04-06T12:36:26.247Z,998.07
2019-04-06T12:37:26.123Z,998.06
2019-04-06T12:38:26.191Z,998.03
2019-04-06T12:39:26.137Z,998.03
2019-04-06T12:40:26.399Z,997.93
2019-04-06T12:41:26.238Z,998.04
2019-04-06T12:42:26.100Z,998.02
2019-04-06T12:43:26.038Z,998.02
2019-04-06T12:44:26.128Z,998.07
2019-04-06T12:45:26.112Z,997.99
2019-04-06T12:46:26.129Z,998.05
2019-04-06T12:47:26.371Z,997.99
2019-04-06T12:48:26.202Z,997.92
2019-04-06T12:49:25.980Z,997.96
2019-04-06T12:50:26.275Z,997.95
2019-04-06T12:51:25.950Z,997.96
2019-04-06T12:52:26.075Z,997.95
2019-04-06T12:53:26.073Z,997.98